createdAt,value
2022-08-12T00:04:09.604Z,101147.78
2022-08-12T00:09:32.445Z,101150.13
2022-08-12T00:14:54.288Z,101135.41
2022-08-12T00:20:16.297Z,101152.44
2022-08-12T00:26:00.477Z,101151.69
2022-08-12T00:31:26.320Z,101156.94
2022-08-12T00:36:59.536Z,101158.97
2022-08-12T00:42:25.920Z,101154.56
2022-08-12T00:47:49.244Z,101159.16
2022-08-12T00:53:12.571Z,101152.16
2022-08-12T00:58:34.637Z,101157.50
2022-08-12T01:03:59.482Z,101158.34
2022-08-12T01:09:22.688Z,101151.31
2022-08-12T01:14:45.406Z,101152.81
2022-08-12T01:20:09.687Z,101150.97
2022-08-12T01:25:41.396Z,101148.38
2022-08-12T01:31:19.677Z,101142.97
2022-08-12T01:36:50.297Z,101152.69
2022-08-12T01:42:18.067Z,101148.88
2022-08-12T01:47:56.489Z,101147.50
2022-08-12T01:53:23.718Z,101127.25
2022-08-12T01:58:46.783Z,101133.56
2022-08-12T02:04:14.583Z,101124.50
2022-08-12T02:09:55.279Z,101113.44
2022-08-12T02:15:56.858Z,101122.22
2022-08-12T02:21:24.442Z,101123.97
2022-08-12T02:26:50.641Z,101100.59
2022-08-12T02:32:14.470Z,101087.75
2022-08-12T02:37:42.363Z,101108.63
2022-08-12T02:43:22.207Z,101103.97
2022-08-12T02:48:50.608Z,101124.66
2022-08-12T02:54:12.704Z,101119.41
2022-08-12T02:59:35.049Z,101114.28
2022-08-12T03:04:58.493Z,101109.88
2022-08-12T03:10:37.326Z,101097.97
2022-08-12T03:15:59.825Z,101112.75
2022-08-12T03:21:56.495Z,101118.66
2022-08-12T03:27:06.082Z,101111.31
2022-08-12T03:32:35.839Z,101143.06
2022-08-12T03:38:00.915Z,101136.72
2022-08-12T03:43:28.842Z,101136.72
2022-08-12T03:48:51.594Z,101153.09
2022-08-12T03:54:13.466Z,101160.16
2022-08-12T03:59:35.271Z,101157.53
2022-08-12T04:04:57.623Z,101156.09
2022-08-12T04:10:20.623Z,101167.66
2022-08-12T04:15:44.753Z,101171.78
2022-08-12T04:21:07.265Z,101159.56
2022-08-12T04:26:29.527Z,101168.50
2022-08-12T04:31:51.384Z,101166.91
2022-08-12T04:37:13.361Z,101169.47
2022-08-12T04:42:35.238Z,101169.91
2022-08-12T04:47:57.189Z,101174.03
2022-08-12T04:53:19.360Z,101155.00
2022-08-12T04:58:41.707Z,101151.03
2022-08-12T05:04:05.594Z,101164.38
2022-08-12T05:09:27.450Z,101162.44
2022-08-12T05:15:11.379Z,101166.38
2022-08-12T05:20:42.115Z,101180.72
2022-08-12T05:26:04.233Z,101167.34
2022-08-12T05:31:47.310Z,101176.41
2022-08-12T05:37:08.984Z,101178.63
2022-08-12T05:42:34.391Z,101168.00
2022-08-12T05:47:56.556Z,101188.06
2022-08-12T05:53:18.591Z,101165.84
2022-08-12T05:58:40.393Z,101174.28
2022-08-12T06:04:02.228Z,101155.03
2022-08-12T06:09:24.129Z,101138.25
2022-08-12T06:14:45.945Z,101155.00
2022-08-12T06:20:27.170Z,101145.00
2022-08-12T06:25:49.909Z,101149.91
2022-08-12T06:31:25.728Z,101161.44
2022-08-12T06:36:48.591Z,101157.56
2022-08-12T06:42:31.873Z,101169.41
2022-08-12T06:47:53.035Z,101156.19
2022-08-12T06:53:14.852Z,101154.47
2022-08-12T06:58:36.664Z,101161.59
2022-08-12T07:04:14.242Z,101153.56
2022-08-12T07:10:06.907Z,101144.00
2022-08-12T07:15:24.968Z,101160.00
2022-08-12T07:20:52.754Z,101155.19
2022-08-12T07:26:15.094Z,101159.75
2022-08-12T07:31:39.753Z,101159.59
2022-08-12T07:37:01.598Z,101157.44
2022-08-12T07:42:26.467Z,101157.63
2022-08-12T07:47:49.037Z,101164.56
2022-08-12T07:53:10.898Z,101154.22
2022-08-12T07:58:33.378Z,101150.41
2022-08-12T08:03:58.873Z,101151.28
2022-08-12T08:09:23.325Z,101157.69
2022-08-12T08:14:45.139Z,101149.34
2022-08-12T08:20:09.096Z,101160.41
2022-08-12T08:25:35.829Z,101161.38
2022-08-12T08:30:59.369Z,101165.66
2022-08-12T08:36:24.229Z,101156.53
2022-08-12T08:42:15.404Z,101178.38
2022-08-12T08:47:27.993Z,101164.00
2022-08-12T08:52:49.871Z,101171.69
2022-08-12T08:58:12.102Z,101173.03
2022-08-12T09:05:07.391Z,101156.72
2022-08-12T09:09:15.797Z,101153.09
2022-08-12T09:14:37.648Z,101155.38
2022-08-12T09:20:00.887Z,101157.56
2022-08-12T09:32:04.270Z,101163.59
2022-08-12T09:37:00.235Z,101158.69
2022-08-12T09:42:38.983Z,101150.25
2022-08-12T09:48:05.790Z,101156.16
2022-08-12T09:53:36.599Z,101151.41
2022-08-12T09:59:02.094Z,101170.84
2022-08-12T10:04:24.773Z,101154.44
2022-08-12T10:09:57.158Z,101151.19
2022-08-12T10:16:01.764Z,101165.38
2022-08-12T10:21:07.552Z,101147.66
2022-08-12T10:26:37.278Z,101130.81
2022-08-12T10:32:21.050Z,101141.19
2022-08-12T10:38:34.770Z,101136.31
2022-08-12T10:43:24.154Z,101124.59
2022-08-12T10:48:47.179Z,101125.56
2022-08-12T10:54:21.569Z,101110.06
2022-08-12T11:00:34.662Z,101114.97
2022-08-12T11:07:05.358Z,101112.31
2022-08-12T11:11:16.686Z,101115.41
2022-08-12T11:16:38.907Z,101116.25
2022-08-12T11:22:01.267Z,101104.78
2022-08-12T11:27:24.984Z,101098.66
2022-08-12T11:32:51.399Z,101099.53
2022-08-12T11:38:13.230Z,101104.94
2022-08-12T11:43:50.558Z,101098.09
2022-08-12T11:49:30.695Z,101108.66
2022-08-12T11:54:54.328Z,101103.06
2022-08-12T12:02:01.649Z,101097.91
2022-08-12T12:06:00.603Z,101101.25
2022-08-12T12:11:22.869Z,101098.03
2022-08-12T12:16:50.185Z,101086.47
2022-08-12T12:22:15.688Z,101077.53
2022-08-12T12:28:04.408Z,101075.16
2022-08-12T12:33:56.750Z,101065.38
2022-08-12T12:39:09.722Z,101071.06
2022-08-12T12:44:41.931Z,101061.63
2022-08-12T12:50:12.685Z,101061.84
2022-08-12T12:55:54.353Z,101072.22
2022-08-12T13:01:26.591Z,101056.38
2022-08-12T13:06:51.677Z,101064.03
2022-08-12T13:12:13.473Z,101051.41
2022-08-12T13:18:00.750Z,101036.91
2022-08-12T13:23:36.967Z,101024.47
2022-08-12T13:28:59.439Z,101031.50
2022-08-12T13:34:33.621Z,101004.50
2022-08-12T13:39:56.907Z,101001.22
2022-08-12T13:45:18.961Z,101018.50
2022-08-12T13:50:41.803Z,101023.97
2022-08-12T13:56:04.266Z,101012.97
2022-08-12T14:01:26.099Z,101015.94
2022-08-12T14:06:48.795Z,101015.09
2022-08-12T14:12:16.222Z,101017.06
2022-08-12T14:17:38.304Z,101002.38
2022-08-12T14:23:00.164Z,101003.72
2022-08-12T14:28:45.472Z,100996.25
2022-08-12T14:34:19.726Z,101004.16
2022-08-12T14:39:50.717Z,101007.94
2022-08-12T14:45:12.708Z,100999.53
2022-08-12T14:52:07.904Z,101004.63
2022-08-12T15:02:00.288Z,101007.69
2022-08-12T15:07:34.273Z,101014.81
2022-08-12T15:13:04.576Z,100999.25
2022-08-12T15:18:31.746Z,100983.75
2022-08-12T15:23:55.635Z,100998.31
2022-08-12T15:29:19.044Z,101005.31
2022-08-12T15:34:41.978Z,100996.94
2022-08-12T15:40:05.303Z,100988.91
2022-08-12T15:45:32.086Z,101010.91
2022-08-12T15:50:55.359Z,101006.13
2022-08-12T15:56:17.203Z,101006.47
2022-08-12T16:01:40.215Z,101005.28
2022-08-12T16:07:09.039Z,101028.47
2022-08-12T16:12:31.281Z,101045.53
2022-08-12T16:18:19.875Z,101088.69
2022-08-12T16:23:55.233Z,101070.25
2022-08-12T16:29:17.618Z,101019.41
2022-08-12T16:34:42.351Z,101013.72
2022-08-12T16:40:18.674Z,101019.28
2022-08-12T16:46:05.001Z,101017.50
2022-08-12T16:51:29.063Z,101016.31
2022-08-12T16:56:59.319Z,101014.97
2022-08-12T17:02:31.447Z,101024.44
2022-08-12T17:07:56.286Z,101014.22
2022-08-12T17:13:20.023Z,101003.28
2022-08-12T17:18:42.876Z,100996.25
2022-08-12T17:24:08.100Z,101001.97
2022-08-12T17:30:00.650Z,100998.22
2022-08-12T17:35:16.184Z,100988.09
2022-08-12T17:40:40.887Z,100975.25
2022-08-12T17:46:03.335Z,100973.03
2022-08-12T17:51:26.313Z,100967.88
2022-08-12T17:56:54.620Z,100959.47
2022-08-12T18:02:29.949Z,100961.28
2022-08-12T18:07:53.364Z,100948.03
2022-08-12T18:13:40.925Z,100958.63
2022-08-12T18:18:59.528Z,100954.97
2022-08-12T18:24:25.085Z,100939.72
2022-08-12T18:29:51.917Z,100942.66
2022-08-12T18:35:17.340Z,100937.19
2022-08-12T18:40:46.554Z,100937.41
2022-08-12T18:46:12.565Z,100930.03
2022-08-12T18:51:45.923Z,100936.47
2022-08-12T18:57:16.267Z,100940.66
2022-08-12T19:02:40.601Z,100938.53
2022-08-12T19:08:03.233Z,100928.38
2022-08-12T19:13:25.314Z,100915.78
2022-08-12T19:18:55.264Z,100941.47
2022-08-12T19:24:17.160Z,100934.88
2022-08-12T19:29:44.166Z,100935.03
2022-08-12T19:36:08.120Z,100941.03
2022-08-12T19:40:48.945Z,100930.00
2022-08-12T19:46:11.083Z,100944.88
2022-08-12T19:51:35.851Z,100930.84
2022-08-12T19:56:58.153Z,100940.66
2022-08-12T20:02:21.184Z,100947.72
2022-08-12T20:07:58.958Z,100947.81
2022-08-12T20:13:26.675Z,100948.63
2022-08-12T20:18:57.232Z,100952.28
2022-08-12T20:24:20.025Z,100943.28
2022-08-12T20:29:45.555Z,100937.81
2022-08-12T20:35:10.245Z,100944.91
2022-08-12T20:40:32.358Z,100936.09
2022-08-12T20:45:57.538Z,100940.00
2022-08-12T20:51:20.017Z,100935.91
2022-08-12T20:56:41.934Z,100940.31
2022-08-12T21:02:07.862Z,100933.38
2022-08-12T21:07:34.174Z,100933.34
2022-08-12T21:12:56.190Z,100925.94
2022-08-12T21:18:28.641Z,100929.25
2022-08-12T21:23:52.298Z,100937.38
2022-08-12T21:29:19.217Z,100926.97
2022-08-12T21:34:41.068Z,100922.78
2022-08-12T21:40:13.115Z,100923.31
2022-08-12T21:45:47.525Z,100955.44
2022-08-12T21:51:22.665Z,100954.06
2022-08-12T21:56:45.562Z,100945.53
2022-08-12T22:02:09.965Z,100973.81
2022-08-12T22:07:46.105Z,100967.59
2022-08-12T22:14:02.253Z,100955.06
2022-08-12T22:18:56.659Z,100947.88
2022-08-12T22:24:26.717Z,100928.28
2022-08-12T22:29:53.139Z,100895.63
2022-08-12T22:35:21.966Z,100885.03
2022-08-12T22:40:47.657Z,100885.94
2022-08-12T22:46:11.230Z,100875.66
2022-08-12T22:51:59.891Z,100872.78
2022-08-12T22:57:15.771Z,100878.28
2022-08-12T23:02:38.053Z,100857.78
2022-08-12T23:08:01.127Z,100864.16
2022-08-12T23:13:23.035Z,100867.66
2022-08-12T23:18:48.238Z,100872.13
2022-08-12T23:24:11.220Z,100861.00
2022-08-12T23:29:43.076Z,100857.72
2022-08-12T23:35:07.028Z,100845.72
2022-08-12T23:40:29.012Z,100844.31
2022-08-12T23:46:00.965Z,100823.75
2022-08-12T23:51:24.361Z,100824.78
2022-08-12T23:56:46.519Z,100833.59
